createdAt,value
2019-03-20T00:00:41.247Z,0
2019-03-20T00:01:50.825Z,0
2019-03-20T00:02:40.702Z,0
2019-03-20T00:03:41.191Z,0
2019-03-20T00:04:51.657Z,0
2019-03-20T00:05:40.897Z,0
2019-03-20T00:06:41.270Z,0
2019-03-20T00:07:41.114Z,0
2019-03-20T00:08:40.827Z,0
2019-03-20T00:09:41.070Z,0
2019-03-20T00:16:18.294Z,0
2019-03-20T00:17:04.080Z,0
2019-03-20T00:22:33.034Z,0
2019-03-20T00:23:33.028Z,0
2019-03-20T00:24:32.992Z,0
2019-03-20T00:25:32.751Z,0
2019-03-20T00:26:32.971Z,0
2019-03-20T00:27:32.984Z,0
2019-03-20T00:28:32.682Z,0
2019-03-20T00:29:32.908Z,0
2019-03-20T00:30:32.923Z,0
2019-03-20T00:31:32.876Z,0
2019-03-20T00:32:32.610Z,0
2019-03-20T00:33:32.838Z,0
2019-03-20T00:34:32.844Z,0
2019-03-20T00:35:32.814Z,0
2019-03-20T00:36:32.540Z,0
2019-03-20T00:37:32.765Z,0
2019-03-20T00:38:32.503Z,0
2019-03-20T00:39:32.727Z,0
2019-03-20T00:40:32.552Z,0
2019-03-20T00:41:32.703Z,0
2019-03-20T00:42:32.187Z,0
2019-03-20T00:43:32.415Z,0
2019-03-20T00:44:32.650Z,0
2019-03-20T00:45:32.631Z,0
2019-03-20T00:46:32.374Z,0
2019-03-20T00:47:32.595Z,0
2019-03-20T00:48:32.336Z,0
2019-03-20T00:49:32.307Z,0
2019-03-20T00:50:32.539Z,0
2019-03-20T00:51:32.553Z,0
2019-03-20T00:52:32.507Z,0
2019-03-20T00:53:32.485Z,0
2019-03-20T00:54:32.227Z,0
2019-03-20T00:55:32.455Z,0
2019-03-20T00:56:32.448Z,0
2019-03-20T00:57:32.422Z,0
2019-03-20T00:58:32.403Z,0
2019-03-20T00:59:32.392Z,0
2019-03-20T01:00:32.379Z,0
2019-03-20T01:01:32.107Z,0
2019-03-20T01:02:32.337Z,0
2019-03-20T01:03:32.306Z,0
2019-03-20T01:04:32.042Z,0
2019-03-20T01:05:32.281Z,0
2019-03-20T01:06:32.261Z,0
2019-03-20T01:07:32.249Z,0
2019-03-20T01:08:32.225Z,0
2019-03-20T01:09:32.274Z,0
2019-03-20T01:10:32.202Z,0
2019-03-20T01:11:32.181Z,0
2019-03-20T01:12:32.154Z,0
2019-03-20T01:13:32.120Z,0
2019-03-20T01:14:31.864Z,0
2019-03-20T01:15:31.848Z,0
2019-03-20T01:16:32.075Z,0
2019-03-20T01:17:31.855Z,0
2019-03-20T01:18:31.884Z,0
2019-03-20T01:19:32.023Z,0
2019-03-20T01:20:32.009Z,0
2019-03-20T01:21:31.981Z,0
2019-03-20T01:22:31.967Z,0
2019-03-20T01:23:31.947Z,0
2019-03-20T01:24:31.936Z,0
2019-03-20T01:25:31.919Z,0
2019-03-20T01:26:31.645Z,0
2019-03-20T01:27:31.933Z,0
2019-03-20T01:28:31.607Z,0
2019-03-20T01:29:31.832Z,0
2019-03-20T01:30:31.333Z,0
2019-03-20T01:31:31.805Z,0
2019-03-20T01:32:31.787Z,0
2019-03-20T01:33:31.764Z,0
2019-03-20T01:34:31.742Z,0
2019-03-20T01:35:33.709Z,0
2019-03-20T01:36:31.470Z,0
2019-03-20T01:37:31.440Z,0
2019-03-20T01:38:31.440Z,0
2019-03-20T01:39:31.417Z,0
2019-03-20T01:40:31.632Z,0
2019-03-20T01:41:42.277Z,0
2019-03-20T01:42:31.357Z,0
2019-03-20T01:43:31.340Z,0
2019-03-20T01:44:31.312Z,0
2019-03-20T01:45:31.353Z,0
2019-03-20T01:46:31.278Z,0
2019-03-20T01:47:31.514Z,0
2019-03-20T01:48:31.238Z,0
2019-03-20T01:49:31.472Z,0
2019-03-20T01:50:31.205Z,0
2019-03-20T01:51:31.434Z,0
2019-03-20T01:52:31.418Z,0
2019-03-20T01:53:31.137Z,0
2019-03-20T01:54:31.381Z,0
2019-03-20T01:55:31.352Z,0
2019-03-20T01:56:31.342Z,0
2019-03-20T01:57:31.317Z,0
2019-03-20T01:58:31.308Z,0
2019-03-20T01:59:30.788Z,0
2019-03-20T02:00:31.263Z,0
2019-03-20T02:01:31.243Z,0
2019-03-20T02:02:30.980Z,0
2019-03-20T02:03:30.974Z,0
2019-03-20T02:04:31.182Z,0
2019-03-20T02:05:42.250Z,0
2019-03-20T02:06:31.157Z,0
2019-03-20T02:07:31.138Z,0
2019-03-20T02:08:31.123Z,0
2019-03-20T02:09:31.123Z,0
2019-03-20T02:10:31.071Z,0
2019-03-20T02:11:30.796Z,0
2019-03-20T02:12:31.038Z,0
2019-03-20T02:13:30.280Z,0
2019-03-20T02:14:30.993Z,0
2019-03-20T02:15:42.814Z,0
2019-03-20T02:16:30.712Z,0
2019-03-20T02:17:30.690Z,0
2019-03-20T02:18:30.937Z,0
2019-03-20T02:19:30.907Z,0
2019-03-20T02:20:30.885Z,0
2019-03-20T02:21:30.616Z,0
2019-03-20T02:22:30.843Z,0
2019-03-20T02:23:30.332Z,0
2019-03-20T02:24:30.810Z,0
2019-03-20T02:25:32.356Z,0
2019-03-20T02:26:30.537Z,0
2019-03-20T02:27:30.743Z,0
2019-03-20T02:28:30.722Z,0
2019-03-20T02:29:30.461Z,0
2019-03-20T02:30:30.715Z,0
2019-03-20T02:31:30.709Z,0
2019-03-20T02:32:30.431Z,0
2019-03-20T02:33:30.667Z,0
2019-03-20T02:34:30.154Z,0
2019-03-20T02:35:30.606Z,0
2019-03-20T02:36:30.345Z,0
2019-03-20T02:37:30.188Z,0
2019-03-20T02:38:30.316Z,0
2019-03-20T02:39:30.534Z,0
2019-03-20T02:40:30.542Z,0
2019-03-20T02:41:30.264Z,0
2019-03-20T02:42:30.495Z,0
2019-03-20T02:43:30.210Z,0
2019-03-20T02:44:30.428Z,0
2019-03-20T02:45:30.406Z,0
2019-03-20T02:46:30.406Z,0
2019-03-20T02:47:30.384Z,0
2019-03-20T02:48:30.351Z,0
2019-03-20T02:49:30.349Z,0
2019-03-20T02:50:30.329Z,0
2019-03-20T02:51:30.322Z,0
2019-03-20T02:52:30.291Z,0
2019-03-20T02:53:30.565Z,0
2019-03-20T02:54:30.026Z,0
2019-03-20T02:55:29.983Z,0
2019-03-20T02:56:30.210Z,0
2019-03-20T02:57:30.179Z,0
2019-03-20T02:58:29.922Z,0
2019-03-20T02:59:29.959Z,0
2019-03-20T03:00:30.151Z,0
2019-03-20T03:01:30.201Z,0
2019-03-20T03:02:29.588Z,0
2019-03-20T03:03:30.082Z,0
2019-03-20T03:04:30.062Z,0
2019-03-20T03:05:30.025Z,0
2019-03-20T03:06:30.016Z,0
2019-03-20T03:07:30.027Z,0
2019-03-20T03:08:29.962Z,0
2019-03-20T03:09:30.168Z,0
2019-03-20T03:10:29.701Z,0
2019-03-20T03:11:29.698Z,0
2019-03-20T03:12:29.650Z,0
2019-03-20T03:13:29.635Z,0
2019-03-20T03:14:29.628Z,0
2019-03-20T03:15:29.839Z,0
2019-03-20T03:16:29.865Z,0
2019-03-20T03:17:29.566Z,0
2019-03-20T03:18:29.777Z,0
2019-03-20T03:19:29.761Z,0
2019-03-20T03:20:29.741Z,0
2019-03-20T03:21:29.738Z,0
2019-03-20T03:22:29.693Z,0
2019-03-20T03:23:29.430Z,0
2019-03-20T03:24:29.439Z,0
2019-03-20T03:25:29.693Z,0
2019-03-20T03:26:29.644Z,0
2019-03-20T03:27:29.623Z,0
2019-03-20T03:28:29.693Z,0
2019-03-20T03:29:29.605Z,0
2019-03-20T03:30:29.583Z,0
2019-03-20T03:31:29.458Z,0
2019-03-20T03:32:29.529Z,0
2019-03-20T03:33:29.294Z,0
2019-03-20T03:34:29.623Z,0
2019-03-20T03:35:30.026Z,0
2019-03-20T03:36:31.305Z,0
2019-03-20T03:37:29.419Z,0
2019-03-20T03:38:29.417Z,0
2019-03-20T03:39:29.143Z,0
2019-03-20T03:40:29.122Z,0
2019-03-20T03:41:29.332Z,0
2019-03-20T03:42:29.317Z,0
2019-03-20T03:43:31.677Z,0
2019-03-20T03:44:29.307Z,0
2019-03-20T03:45:29.298Z,0
2019-03-20T03:46:28.786Z,0
2019-03-20T03:47:29.239Z,0
2019-03-20T03:48:29.216Z,0
2019-03-20T03:49:28.948Z,0
2019-03-20T03:50:29.188Z,0
2019-03-20T03:51:29.139Z,0
2019-03-20T03:52:29.164Z,0
2019-03-20T03:53:29.123Z,0
2019-03-20T03:54:29.115Z,0
2019-03-20T03:55:29.086Z,0
2019-03-20T03:56:28.804Z,0
2019-03-20T03:57:28.797Z,0
2019-03-20T03:58:28.777Z,0
2019-03-20T03:59:28.528Z,0
2019-03-20T04:00:28.976Z,0
2019-03-20T04:01:28.939Z,0
2019-03-20T04:02:28.701Z,0
2019-03-20T04:03:28.919Z,0
2019-03-20T04:04:28.875Z,0
2019-03-20T04:05:28.669Z,0
2019-03-20T04:06:42.525Z,0
2019-03-20T04:07:30.979Z,0
2019-03-20T04:08:28.908Z,0
2019-03-20T04:09:28.783Z,0
2019-03-20T04:10:28.776Z,0
2019-03-20T04:11:28.740Z,0
2019-03-20T04:12:28.721Z,0
2019-03-20T04:13:28.458Z,0
2019-03-20T04:14:28.467Z,0
2019-03-20T04:15:28.659Z,0
2019-03-20T04:16:28.642Z,0
2019-03-20T04:17:28.466Z,0
2019-03-20T04:18:28.368Z,0
2019-03-20T04:19:28.582Z,0
2019-03-20T04:20:28.344Z,0
2019-03-20T04:21:28.571Z,0
2019-03-20T04:22:28.535Z,0
2019-03-20T04:23:28.546Z,0
2019-03-20T04:24:28.252Z,0
2019-03-20T04:25:28.467Z,0
2019-03-20T04:26:28.201Z,0
2019-03-20T04:27:28.448Z,0
2019-03-20T04:28:28.411Z,0
2019-03-20T04:29:28.412Z,0
2019-03-20T04:30:28.129Z,0
2019-03-20T04:31:28.359Z,0
2019-03-20T04:32:28.359Z,0
2019-03-20T04:33:28.324Z,0
2019-03-20T04:34:28.331Z,0
2019-03-20T04:35:28.276Z,0
2019-03-20T04:36:28.243Z,0
2019-03-20T04:37:28.227Z,0
2019-03-20T04:38:27.971Z,0
2019-03-20T04:39:27.709Z,0
2019-03-20T04:40:28.168Z,0
2019-03-20T04:41:28.142Z,0
2019-03-20T04:42:27.954Z,0
2019-03-20T04:43:27.890Z,0
2019-03-20T04:44:28.083Z,0
2019-03-20T04:45:27.828Z,0
2019-03-20T04:46:27.797Z,0
2019-03-20T04:47:28.020Z,0
2019-03-20T04:48:27.511Z,0
2019-03-20T04:49:27.984Z,0
2019-03-20T04:50:27.723Z,0
2019-03-20T04:51:27.938Z,0
2019-03-20T04:52:27.678Z,0
2019-03-20T04:53:27.899Z,0
2019-03-20T04:54:27.891Z,0
2019-03-20T04:55:27.862Z,0
2019-03-20T04:56:27.843Z,0
2019-03-20T04:57:27.824Z,0
2019-03-20T04:58:27.569Z,0
2019-03-20T04:59:27.532Z,0
2019-03-20T05:00:27.765Z,0
2019-03-20T05:01:27.501Z,0
2019-03-20T05:02:27.726Z,0
2019-03-20T05:03:27.459Z,0
2019-03-20T05:04:27.686Z,0
2019-03-20T05:05:27.686Z,0
2019-03-20T05:06:27.399Z,0
2019-03-20T05:07:27.628Z,0
2019-03-20T05:08:27.384Z,0
2019-03-20T05:09:27.591Z,0
2019-03-20T05:10:27.572Z,5
2019-03-20T05:11:27.303Z,5
2019-03-20T05:12:27.526Z,5
2019-03-20T05:13:27.505Z,5
2019-03-20T05:14:27.247Z,5
2019-03-20T05:15:27.473Z,5
2019-03-20T05:16:27.208Z,5
2019-03-20T05:17:27.515Z,5
2019-03-20T05:18:27.409Z,10
2019-03-20T05:19:27.145Z,10
2019-03-20T05:20:26.880Z,10
2019-03-20T05:21:27.350Z,10
2019-03-20T05:22:27.086Z,10
2019-03-20T05:23:27.307Z,10
2019-03-20T05:24:27.305Z,15
2019-03-20T05:25:27.263Z,15
2019-03-20T05:26:27.256Z,15
2019-03-20T05:27:26.739Z,15
2019-03-20T05:28:27.204Z,15
2019-03-20T05:29:26.953Z,20
2019-03-20T05:30:27.188Z,20
2019-03-20T05:31:26.899Z,20
2019-03-20T05:32:29.212Z,20
2019-03-20T05:33:27.177Z,20
2019-03-20T05:34:26.604Z,25
2019-03-20T05:35:27.090Z,25
2019-03-20T05:36:27.050Z,25
2019-03-20T05:37:27.037Z,25
2019-03-20T05:38:27.024Z,25
2019-03-20T05:39:26.991Z,30
2019-03-20T05:40:27.034Z,30
2019-03-20T05:41:26.948Z,30
2019-03-20T05:42:26.680Z,30
2019-03-20T05:43:26.660Z,30
2019-03-20T05:44:26.891Z,35
2019-03-20T05:45:26.627Z,35
2019-03-20T05:46:26.601Z,35
2019-03-20T05:47:26.839Z,35
2019-03-20T05:48:26.566Z,35
2019-03-20T05:49:26.317Z,40
2019-03-20T05:50:26.774Z,40
2019-03-20T05:51:26.756Z,40
2019-03-20T05:52:26.486Z,40
2019-03-20T05:53:26.763Z,40
2019-03-20T05:54:26.690Z,40
2019-03-20T05:55:26.673Z,45
2019-03-20T05:56:26.657Z,45
2019-03-20T05:57:26.646Z,45
2019-03-20T05:58:26.624Z,45
2019-03-20T05:59:26.598Z,45
2019-03-20T06:00:26.458Z,45
2019-03-20T06:01:26.563Z,50
2019-03-20T06:02:28.271Z,50
2019-03-20T06:03:26.519Z,50
2019-03-20T06:04:26.494Z,50
2019-03-20T06:05:26.486Z,50
2019-03-20T06:06:26.205Z,50
2019-03-20T06:07:31.215Z,50
2019-03-20T06:08:26.411Z,55
2019-03-20T06:09:26.396Z,55
2019-03-20T06:10:26.420Z,55
2019-03-20T06:11:26.355Z,55
2019-03-20T06:12:26.092Z,55
2019-03-20T06:13:26.315Z,60
2019-03-20T06:14:26.051Z,60
2019-03-20T06:15:27.069Z,60
2019-03-20T06:16:26.264Z,60
2019-03-20T06:17:25.750Z,65
2019-03-20T06:18:26.227Z,65
2019-03-20T06:19:26.197Z,60
2019-03-20T06:20:25.698Z,65
2019-03-20T06:21:26.168Z,65
2019-03-20T06:22:27.179Z,65
2019-03-20T06:23:26.140Z,70
2019-03-20T06:24:25.858Z,70
2019-03-20T06:25:28.551Z,65
2019-03-20T06:26:26.062Z,65
2019-03-20T06:27:26.046Z,65
2019-03-20T06:28:25.783Z,65
2019-03-20T06:29:27.376Z,65
2019-03-20T06:30:25.986Z,65
2019-03-20T06:31:28.355Z,70
2019-03-20T06:32:25.710Z,75
2019-03-20T06:33:25.686Z,75
2019-03-20T06:34:25.912Z,70
2019-03-20T06:35:25.890Z,70
2019-03-20T06:36:25.624Z,75
2019-03-20T06:37:36.836Z,80
2019-03-20T06:38:25.842Z,85
2019-03-20T06:39:25.817Z,90
2019-03-20T06:40:25.808Z,85
2019-03-20T06:41:25.540Z,80
2019-03-20T06:42:25.755Z,80
2019-03-20T06:43:25.502Z,75
2019-03-20T06:44:25.725Z,75
2019-03-20T06:45:25.702Z,75
2019-03-20T06:46:25.697Z,75
2019-03-20T06:47:25.417Z,75
2019-03-20T06:48:25.392Z,75
2019-03-20T06:49:25.624Z,75
2019-03-20T06:50:25.359Z,75
2019-03-20T06:51:25.587Z,75
2019-03-20T06:52:25.333Z,80
2019-03-20T06:53:25.564Z,80
2019-03-20T06:54:25.538Z,80
2019-03-20T06:55:25.283Z,80
2019-03-20T06:56:25.524Z,80
2019-03-20T06:57:25.480Z,80
2019-03-20T06:58:25.218Z,80
2019-03-20T06:59:25.191Z,80
2019-03-20T07:00:25.421Z,80
2019-03-20T07:01:25.407Z,85
2019-03-20T07:02:25.385Z,85
2019-03-20T07:03:25.119Z,85
2019-03-20T07:04:25.372Z,85
2019-03-20T07:05:25.319Z,85
2019-03-20T07:06:25.319Z,85
2019-03-20T07:07:25.044Z,85
2019-03-20T07:08:25.284Z,85
2019-03-20T07:09:25.014Z,85
2019-03-20T07:10:24.987Z,85
2019-03-20T07:11:24.969Z,85
2019-03-20T07:12:24.949Z,85
2019-03-20T07:13:25.182Z,85
2019-03-20T07:14:25.162Z,85
2019-03-20T07:15:25.138Z,85
2019-03-20T07:16:25.124Z,85
2019-03-20T07:17:25.117Z,90
2019-03-20T07:18:25.090Z,90
2019-03-20T07:19:25.067Z,90
2019-03-20T07:20:24.811Z,90
2019-03-20T07:21:25.734Z,90
2019-03-20T07:22:25.015Z,90
2019-03-20T07:23:25.002Z,90
2019-03-20T07:24:25.021Z,90
2019-03-20T07:25:24.964Z,90
2019-03-20T07:26:24.954Z,90
2019-03-20T07:27:24.927Z,90
2019-03-20T07:28:24.908Z,90
2019-03-20T07:29:24.644Z,90
2019-03-20T07:30:24.627Z,90
2019-03-20T07:31:25.544Z,90
2019-03-20T07:32:24.848Z,90
2019-03-20T07:33:24.825Z,90
2019-03-20T07:34:24.802Z,95
2019-03-20T07:35:24.784Z,95
2019-03-20T07:36:24.777Z,95
2019-03-20T07:37:24.757Z,95
2019-03-20T07:38:24.244Z,95
2019-03-20T07:39:24.540Z,95
2019-03-20T07:40:24.704Z,95
2019-03-20T07:41:24.428Z,95
2019-03-20T07:42:24.667Z,95
2019-03-20T07:43:26.901Z,95
2019-03-20T07:44:24.638Z,95
2019-03-20T07:45:24.618Z,95
2019-03-20T07:46:24.614Z,95
2019-03-20T07:47:24.588Z,95
2019-03-20T07:48:31.551Z,95
2019-03-20T07:49:24.540Z,95
2019-03-20T07:50:24.523Z,100
2019-03-20T07:51:24.513Z,100
2019-03-20T07:52:24.257Z,100
2019-03-20T07:53:24.559Z,100
2019-03-20T07:54:24.462Z,95
2019-03-20T07:55:24.450Z,95
2019-03-20T07:56:24.430Z,95
2019-03-20T07:57:24.409Z,95
2019-03-20T07:58:24.382Z,95
2019-03-20T07:59:24.365Z,100
2019-03-20T08:00:24.105Z,100
2019-03-20T08:01:24.942Z,100
2019-03-20T08:02:24.076Z,100
2019-03-20T08:03:24.068Z,100
2019-03-20T08:04:24.284Z,100
2019-03-20T08:05:33.970Z,105
2019-03-20T08:06:24.260Z,105
2019-03-20T08:07:24.138Z,105
2019-03-20T08:08:23.975Z,105
2019-03-20T08:09:25.618Z,105
2019-03-20T08:10:23.945Z,105
2019-03-20T08:11:23.933Z,105
2019-03-20T08:12:24.160Z,105
2019-03-20T08:13:24.142Z,105
2019-03-20T08:14:23.877Z,105
2019-03-20T08:15:24.108Z,105
2019-03-20T08:16:24.095Z,110
2019-03-20T08:17:23.831Z,110
2019-03-20T08:18:24.055Z,110
2019-03-20T08:19:24.042Z,110
2019-03-20T08:20:24.018Z,110
2019-03-20T08:21:24.007Z,110
2019-03-20T08:22:23.753Z,110
2019-03-20T08:23:23.971Z,110
2019-03-20T08:24:23.959Z,110
2019-03-20T08:25:23.945Z,110
2019-03-20T08:26:23.928Z,110
2019-03-20T08:27:23.911Z,110
2019-03-20T08:28:23.932Z,110
2019-03-20T08:29:23.630Z,110
2019-03-20T08:30:23.639Z,110
2019-03-20T08:31:23.855Z,110
2019-03-20T08:32:23.584Z,110
2019-03-20T08:33:23.831Z,110
2019-03-20T08:34:23.803Z,110
2019-03-20T08:35:23.789Z,110
2019-03-20T08:36:23.778Z,110
2019-03-20T08:37:23.762Z,110
2019-03-20T08:38:28.273Z,110
2019-03-20T08:39:23.544Z,110
2019-03-20T08:40:23.715Z,110
2019-03-20T08:41:23.758Z,110
2019-03-20T08:42:23.711Z,110
2019-03-20T08:43:23.669Z,110
2019-03-20T08:44:23.402Z,110
2019-03-20T08:45:23.645Z,110
2019-03-20T08:46:23.383Z,110
2019-03-20T08:47:23.609Z,110
2019-03-20T08:48:23.588Z,110
2019-03-20T08:49:23.586Z,110
2019-03-20T08:50:23.607Z,110
2019-03-20T08:51:23.559Z,110
2019-03-20T08:52:23.533Z,110
2019-03-20T08:53:23.274Z,110
2019-03-20T08:54:23.574Z,115
2019-03-20T08:55:23.245Z,115
2019-03-20T08:56:23.470Z,115
2019-03-20T08:57:23.512Z,115
2019-03-20T08:58:23.557Z,115
2019-03-20T08:59:25.055Z,115
2019-03-20T09:00:23.182Z,115
2019-03-20T09:01:33.192Z,115
2019-03-20T09:02:23.385Z,115
2019-03-20T09:03:23.431Z,115
2019-03-20T09:04:23.354Z,115
2019-03-20T09:05:23.342Z,115
2019-03-20T09:06:23.080Z,115
2019-03-20T09:07:23.311Z,115
2019-03-20T09:08:33.952Z,115
2019-03-20T09:09:23.282Z,115
2019-03-20T09:10:23.306Z,115
2019-03-20T09:11:23.256Z,115
2019-03-20T09:12:23.024Z,115
2019-03-20T09:13:23.287Z,115
2019-03-20T09:14:23.213Z,115
2019-03-20T09:15:23.238Z,115
2019-03-20T09:16:22.932Z,115
2019-03-20T09:17:22.971Z,115
2019-03-20T09:18:23.211Z,115
2019-03-20T09:19:23.142Z,115
2019-03-20T09:20:23.129Z,115
2019-03-20T09:21:23.110Z,115
2019-03-20T09:22:23.095Z,115
2019-03-20T09:23:23.082Z,115
2019-03-20T09:24:23.187Z,115
2019-03-20T09:25:22.573Z,115
2019-03-20T09:26:22.824Z,115
2019-03-20T09:27:23.025Z,115
2019-03-20T09:28:23.012Z,115
2019-03-20T09:29:38.391Z,115
2019-03-20T09:30:22.745Z,115
2019-03-20T09:31:22.964Z,115
2019-03-20T09:32:22.966Z,115
2019-03-20T09:33:22.781Z,115
2019-03-20T09:34:22.682Z,115
2019-03-20T09:35:22.949Z,120
2019-03-20T09:36:22.411Z,120
2019-03-20T09:37:22.881Z,120
2019-03-20T09:38:22.867Z,120
2019-03-20T09:39:23.017Z,120
2019-03-20T09:40:23.723Z,120
2019-03-20T09:41:22.345Z,120
2019-03-20T09:42:22.809Z,120
2019-03-20T09:43:22.799Z,120
2019-03-20T09:44:22.564Z,120
2019-03-20T09:45:22.779Z,115
2019-03-20T09:46:22.763Z,120
2019-03-20T09:47:22.737Z,120
2019-03-20T09:48:22.725Z,120
2019-03-20T09:49:22.707Z,120
2019-03-20T09:50:22.470Z,120
2019-03-20T09:51:22.679Z,120
2019-03-20T09:52:22.414Z,120
2019-03-20T09:53:22.176Z,120
2019-03-20T09:54:22.442Z,120
2019-03-20T09:55:22.385Z,120
2019-03-20T09:56:22.362Z,120
2019-03-20T09:57:22.363Z,120
2019-03-20T09:58:22.587Z,115
2019-03-20T09:59:22.576Z,115
2019-03-20T10:00:22.560Z,115
2019-03-20T10:01:22.546Z,115
2019-03-20T10:02:22.276Z,115
2019-03-20T10:03:22.524Z,115
2019-03-20T10:04:22.500Z,120
2019-03-20T10:05:22.490Z,120
2019-03-20T10:06:22.482Z,120
2019-03-20T10:07:22.464Z,120
2019-03-20T10:08:22.455Z,115
2019-03-20T10:09:22.443Z,120
2019-03-20T10:10:22.421Z,115
2019-03-20T10:11:22.479Z,115
2019-03-20T10:12:22.397Z,115
2019-03-20T10:13:22.133Z,115
2019-03-20T10:14:22.364Z,115
2019-03-20T10:15:22.357Z,115
2019-03-20T10:16:22.083Z,115
2019-03-20T10:17:24.482Z,115
2019-03-20T10:18:22.320Z,115
2019-03-20T10:19:22.298Z,115
2019-03-20T10:20:22.339Z,115
2019-03-20T10:21:22.274Z,115
2019-03-20T10:22:22.258Z,115
2019-03-20T10:23:22.254Z,115
2019-03-20T10:24:22.287Z,120
2019-03-20T10:25:21.977Z,115
2019-03-20T10:26:22.200Z,115
2019-03-20T10:27:22.188Z,115
2019-03-20T10:28:22.168Z,115
2019-03-20T10:29:22.152Z,115
2019-03-20T10:30:22.143Z,115
2019-03-20T10:31:22.129Z,115
2019-03-20T10:32:22.113Z,115
2019-03-20T10:33:23.626Z,115
2019-03-20T10:34:21.846Z,115
2019-03-20T10:35:21.844Z,110
2019-03-20T10:36:22.064Z,115
2019-03-20T10:37:22.044Z,115
2019-03-20T10:38:22.040Z,115
2019-03-20T10:39:22.190Z,115
2019-03-20T10:40:22.018Z,115
2019-03-20T10:41:21.753Z,110
2019-03-20T10:42:21.546Z,110
2019-03-20T10:43:21.985Z,110
2019-03-20T10:44:21.960Z,110
2019-03-20T10:45:21.945Z,110
2019-03-20T10:46:21.937Z,110
2019-03-20T10:47:21.935Z,110
2019-03-20T10:48:21.941Z,110
2019-03-20T10:49:21.890Z,110
2019-03-20T10:50:23.622Z,110
2019-03-20T10:51:21.860Z,110
2019-03-20T10:52:21.872Z,115
2019-03-20T10:53:21.872Z,115
2019-03-20T10:54:23.793Z,115
2019-03-20T10:55:21.827Z,115
2019-03-20T10:56:21.560Z,115
2019-03-20T10:57:21.796Z,115
2019-03-20T10:58:21.600Z,115
2019-03-20T10:59:21.771Z,115
2019-03-20T11:00:21.772Z,115
2019-03-20T11:01:21.739Z,115
2019-03-20T11:02:21.733Z,115
2019-03-20T11:03:21.735Z,115
2019-03-20T11:04:21.706Z,115
2019-03-20T11:05:21.453Z,115
2019-03-20T11:06:21.672Z,115
2019-03-20T11:07:21.658Z,115
2019-03-20T11:08:22.679Z,115
2019-03-20T11:09:28.013Z,110
2019-03-20T11:10:21.649Z,110
2019-03-20T11:11:31.659Z,110
2019-03-20T11:12:21.628Z,110
2019-03-20T11:13:21.346Z,110
2019-03-20T11:14:21.577Z,110
2019-03-20T11:15:21.305Z,110
2019-03-20T11:16:21.290Z,110
2019-03-20T11:17:21.536Z,110
2019-03-20T11:18:21.510Z,110
2019-03-20T11:19:21.572Z,110
2019-03-20T11:20:21.514Z,110
2019-03-20T11:21:21.469Z,110
2019-03-20T11:22:27.911Z,110
2019-03-20T11:23:21.449Z,110
2019-03-20T11:24:22.513Z,110
2019-03-20T11:25:21.421Z,110
2019-03-20T11:26:21.176Z,110
2019-03-20T11:27:21.147Z,110
2019-03-20T11:28:21.381Z,110
2019-03-20T11:29:26.467Z,110
2019-03-20T11:30:22.629Z,110
2019-03-20T11:31:21.368Z,110
2019-03-20T11:32:23.642Z,110
2019-03-20T11:33:21.317Z,110
2019-03-20T11:34:21.301Z,110
2019-03-20T11:35:21.292Z,110
2019-03-20T11:36:21.271Z,110
2019-03-20T11:37:21.317Z,110
2019-03-20T11:38:21.250Z,110
2019-03-20T11:39:31.910Z,110
2019-03-20T11:40:21.230Z,110
2019-03-20T11:41:20.972Z,110
2019-03-20T11:42:21.201Z,110
2019-03-20T11:43:21.178Z,110
2019-03-20T11:44:20.918Z,110
2019-03-20T11:45:23.354Z,105
2019-03-20T11:46:21.137Z,105
2019-03-20T11:47:20.880Z,110
2019-03-20T11:48:20.640Z,105
2019-03-20T11:49:21.102Z,105
2019-03-20T11:50:21.094Z,105
2019-03-20T11:51:21.080Z,105
2019-03-20T11:52:21.073Z,105
2019-03-20T11:53:21.141Z,105
2019-03-20T11:54:21.045Z,105
2019-03-20T11:55:20.804Z,105
2019-03-20T11:56:21.016Z,105
2019-03-20T11:57:21.725Z,105
2019-03-20T11:58:20.997Z,105
2019-03-20T11:59:20.979Z,105
2019-03-20T12:00:20.968Z,105
2019-03-20T12:01:20.948Z,105
2019-03-20T12:02:32.218Z,105
2019-03-20T12:03:20.761Z,105
2019-03-20T12:04:20.927Z,105
2019-03-20T12:05:20.913Z,105
2019-03-20T12:06:20.973Z,105
2019-03-20T12:07:20.887Z,105
2019-03-20T12:08:20.899Z,105
2019-03-20T12:09:20.605Z,105
2019-03-20T12:10:20.597Z,105
2019-03-20T12:11:23.346Z,105
2019-03-20T12:12:20.818Z,105
2019-03-20T12:13:20.805Z,105
2019-03-20T12:14:20.796Z,105
2019-03-20T12:15:20.532Z,105
2019-03-20T12:16:20.761Z,105
2019-03-20T12:17:22.735Z,105
2019-03-20T12:18:20.249Z,105
2019-03-20T12:19:20.736Z,105
2019-03-20T12:20:20.720Z,105
2019-03-20T12:21:20.709Z,105
2019-03-20T12:22:20.701Z,105
2019-03-20T12:23:20.431Z,100
2019-03-20T12:24:20.671Z,100
2019-03-20T12:25:20.654Z,100
2019-03-20T12:26:20.648Z,100
2019-03-20T12:27:24.964Z,100
2019-03-20T12:28:20.619Z,100
2019-03-20T12:29:20.364Z,100
2019-03-20T12:30:20.606Z,100
2019-03-20T12:31:20.450Z,105
2019-03-20T12:32:20.565Z,100
2019-03-20T12:33:20.957Z,100
2019-03-20T12:34:20.294Z,100
2019-03-20T12:35:20.525Z,100
2019-03-20T12:36:20.516Z,100
2019-03-20T12:37:20.045Z,100
2019-03-20T12:38:24.553Z,100
2019-03-20T12:39:20.229Z,100
2019-03-20T12:40:20.221Z,100
2019-03-20T12:41:20.487Z,100
2019-03-20T12:42:20.440Z,100
2019-03-20T12:43:20.543Z,100
2019-03-20T12:44:20.430Z,100
2019-03-20T12:45:20.399Z,100
2019-03-20T12:46:20.392Z,100
2019-03-20T12:47:20.381Z,100
2019-03-20T12:48:20.135Z,100
2019-03-20T12:49:20.359Z,100
2019-03-20T12:50:20.343Z,100
2019-03-20T12:51:20.344Z,100
2019-03-20T12:52:20.321Z,100
2019-03-20T12:53:20.059Z,100
2019-03-20T12:54:20.311Z,100
2019-03-20T12:55:20.282Z,100
2019-03-20T12:56:20.278Z,100
2019-03-20T12:57:20.317Z,100
2019-03-20T12:58:20.243Z,100
2019-03-20T12:59:20.234Z,100
2019-03-20T13:00:20.533Z,100
2019-03-20T13:01:20.208Z,100
2019-03-20T13:02:19.962Z,100
2019-03-20T13:03:19.720Z,100
2019-03-20T13:04:20.169Z,100
2019-03-20T13:05:19.908Z,100
2019-03-20T13:06:20.175Z,100
2019-03-20T13:07:19.883Z,100
2019-03-20T13:08:19.870Z,100
2019-03-20T13:09:20.107Z,100
2019-03-20T13:10:19.867Z,100
2019-03-20T13:11:20.081Z,100
2019-03-20T13:12:20.074Z,100
2019-03-20T13:13:20.283Z,100
2019-03-20T13:14:20.054Z,100
2019-03-20T13:15:20.039Z,100
2019-03-20T13:16:20.035Z,100
2019-03-20T13:17:19.765Z,100
2019-03-20T13:18:19.997Z,100
2019-03-20T13:19:19.496Z,100
2019-03-20T13:20:19.965Z,100
2019-03-20T13:21:20.109Z,100
2019-03-20T13:22:19.962Z,100
2019-03-20T13:23:19.935Z,100
2019-03-20T13:24:19.918Z,100
2019-03-20T13:25:19.908Z,100
2019-03-20T13:26:19.903Z,100
2019-03-20T13:27:19.890Z,100
2019-03-20T13:28:19.884Z,100
2019-03-20T13:29:19.861Z,100
2019-03-20T13:30:29.572Z,100
2019-03-20T13:31:19.912Z,100
2019-03-20T13:32:19.835Z,100
2019-03-20T13:33:29.976Z,100
2019-03-20T13:34:19.804Z,100
2019-03-20T13:35:19.793Z,100
2019-03-20T13:36:20.041Z,100
2019-03-20T13:37:21.691Z,100
2019-03-20T13:38:19.514Z,100
2019-03-20T13:39:19.740Z,95
2019-03-20T13:40:24.171Z,95
2019-03-20T13:41:19.487Z,95
2019-03-20T13:42:19.703Z,95
2019-03-20T13:43:19.695Z,95
2019-03-20T13:44:19.681Z,95
2019-03-20T13:45:19.168Z,95
2019-03-20T13:46:19.659Z,95
2019-03-20T13:47:19.418Z,95
2019-03-20T13:48:19.385Z,95
2019-03-20T13:49:19.368Z,95
2019-03-20T13:50:19.627Z,95
2019-03-20T13:51:19.621Z,95
2019-03-20T13:52:19.343Z,95
2019-03-20T13:53:20.298Z,95
2019-03-20T13:54:19.307Z,95
2019-03-20T13:55:19.570Z,95
2019-03-20T13:56:19.548Z,95
2019-03-20T13:57:19.281Z,95
2019-03-20T13:58:19.505Z,100
2019-03-20T13:59:19.534Z,100
2019-03-20T14:00:19.493Z,100
2019-03-20T14:01:19.471Z,100
2019-03-20T14:02:19.021Z,100
2019-03-20T14:03:19.199Z,100
2019-03-20T14:04:19.437Z,100
2019-03-20T14:05:19.433Z,100
2019-03-20T14:06:19.166Z,100
2019-03-20T14:07:19.410Z,100
2019-03-20T14:08:19.393Z,100
2019-03-20T14:09:19.139Z,100
2019-03-20T14:10:29.210Z,100
2019-03-20T14:11:19.355Z,100
2019-03-20T14:12:19.342Z,100
2019-03-20T14:13:19.421Z,100
2019-03-20T14:14:19.063Z,100
2019-03-20T14:15:19.307Z,100
2019-03-20T14:16:18.798Z,100
2019-03-20T14:17:19.029Z,100
2019-03-20T14:18:18.538Z,100
2019-03-20T14:19:19.932Z,95
2019-03-20T14:20:19.245Z,90
2019-03-20T14:21:19.254Z,90
2019-03-20T14:22:19.263Z,90
2019-03-20T14:23:19.201Z,90